sensor_id;sensor_type;location;lat;lon;timestamp;pressure;altitude;pressure_sealevel;temperature;humidity
9009;BME280;62813;51.424;6.762;2022-08-19T00:02:00;101050.38;;;21.03;68.58
9009;BME280;62813;51.424;6.762;2022-08-19T00:04:31;101050.03;;;20.96;68.74
9009;BME280;62813;51.424;6.762;2022-08-19T00:06:59;101051.00;;;20.95;68.76
9009;BME280;62813;51.424;6.762;2022-08-19T00:09:26;101052.53;;;20.98;68.84
9009;BME280;62813;51.424;6.762;2022-08-19T00:11:53;101058.41;;;21.02;68.85
9009;BME280;62813;51.424;6.762;2022-08-19T00:14:23;101056.97;;;20.97;68.24
9009;BME280;62813;51.424;6.762;2022-08-19T00:16:51;101056.63;;;20.91;69.22
9009;BME280;62813;51.424;6.762;2022-08-19T00:19:21;101056.88;;;20.88;68.87
9009;BME280;62813;51.424;6.762;2022-08-19T00:21:48;101057.72;;;20.88;69.22
9009;BME280;62813;51.424;6.762;2022-08-19T00:24:14;101058.41;;;20.90;68.87
9009;BME280;62813;51.424;6.762;2022-08-19T00:26:43;101059.38;;;20.89;68.67
9009;BME280;62813;51.424;6.762;2022-08-19T00:29:11;101053.75;;;20.83;68.81
9009;BME280;62813;51.424;6.762;2022-08-19T00:31:39;101059.91;;;20.72;69.43
9009;BME280;62813;51.424;6.762;2022-08-19T00:34:05;101056.63;;;20.68;69.70
9009;BME280;62813;51.424;6.762;2022-08-19T00:36:32;101054.84;;;20.69;70.04
9009;BME280;62813;51.424;6.762;2022-08-19T00:38:59;101053.66;;;20.73;69.94
9009;BME280;62813;51.424;6.762;2022-08-19T00:41:27;101050.19;;;20.72;69.60
9009;BME280;62813;51.424;6.762;2022-08-19T00:44:08;101048.38;;;20.73;69.52
9009;BME280;62813;51.424;6.762;2022-08-19T00:46:38;101039.97;;;20.68;69.63
9009;BME280;62813;51.424;6.762;2022-08-19T00:49:15;101045.72;;;20.62;69.66
9009;BME280;62813;51.424;6.762;2022-08-19T00:51:45;101045.50;;;20.54;70.26
9009;BME280;62813;51.424;6.762;2022-08-19T00:54:13;101043.34;;;20.48;69.94
9009;BME280;62813;51.424;6.762;2022-08-19T00:56:41;101047.41;;;20.40;70.34
9009;BME280;62813;51.424;6.762;2022-08-19T00:59:08;101048.50;;;20.38;70.58
9009;BME280;62813;51.424;6.762;2022-08-19T01:01:39;101046.19;;;20.33;70.91
9009;BME280;62813;51.424;6.762;2022-08-19T01:04:07;101044.78;;;20.29;70.83
9009;BME280;62813;51.424;6.762;2022-08-19T01:06:36;101048.34;;;20.28;70.83
9009;BME280;62813;51.424;6.762;2022-08-19T01:09:04;101050.22;;;20.26;71.17
9009;BME280;62813;51.424;6.762;2022-08-19T01:11:34;101042.56;;;20.23;71.04
9009;BME280;62813;51.424;6.762;2022-08-19T01:14:02;101039.09;;;20.23;70.98
9009;BME280;62813;51.424;6.762;2022-08-19T01:16:29;101036.56;;;20.21;70.95
9009;BME280;62813;51.424;6.762;2022-08-19T01:18:56;101048.44;;;20.15;71.02
9009;BME280;62813;51.424;6.762;2022-08-19T01:23:57;101049.00;;;20.08;71.83
9009;BME280;62813;51.424;6.762;2022-08-19T01:26:24;101047.09;;;20.10;71.80
9009;BME280;62813;51.424;6.762;2022-08-19T01:28:55;101044.47;;;20.10;71.41
9009;BME280;62813;51.424;6.762;2022-08-19T01:31:27;101050.19;;;20.04;71.83
9009;BME280;62813;51.424;6.762;2022-08-19T01:34:00;101058.69;;;19.96;72.25
9009;BME280;62813;51.424;6.762;2022-08-19T01:36:42;101045.63;;;19.95;72.83
9009;BME280;62813;51.424;6.762;2022-08-19T01:39:16;101040.13;;;19.98;72.75
9009;BME280;62813;51.424;6.762;2022-08-19T01:41:44;101037.34;;;19.99;72.34
9009;BME280;62813;51.424;6.762;2022-08-19T01:44:11;101039.88;;;20.01;72.87
9009;BME280;62813;51.424;6.762;2022-08-19T01:46:46;101040.13;;;19.98;72.35
9009;BME280;62813;51.424;6.762;2022-08-19T01:49:15;101051.22;;;19.90;72.79
9009;BME280;62813;51.424;6.762;2022-08-19T01:51:43;101044.88;;;19.81;73.18
9009;BME280;62813;51.424;6.762;2022-08-19T01:54:12;101047.25;;;19.73;73.30
9009;BME280;62813;51.424;6.762;2022-08-19T01:56:53;101044.31;;;19.65;73.82
9009;BME280;62813;51.424;6.762;2022-08-19T01:59:23;101044.56;;;19.62;74.25
9009;BME280;62813;51.424;6.762;2022-08-19T02:01:50;101041.69;;;19.65;74.36
9009;BME280;62813;51.424;6.762;2022-08-19T02:04:17;101045.28;;;19.64;74.31
9009;BME280;62813;51.424;6.762;2022-08-19T02:06:44;101050.41;;;19.66;74.08
9009;BME280;62813;51.424;6.762;2022-08-19T02:09:10;101043.84;;;19.60;74.72
9009;BME280;62813;51.424;6.762;2022-08-19T02:11:37;101046.47;;;19.60;74.28
9009;BME280;62813;51.424;6.762;2022-08-19T02:14:06;101039.75;;;19.56;74.53
9009;BME280;62813;51.424;6.762;2022-08-19T02:16:34;101043.25;;;19.44;75.10
9009;BME280;62813;51.424;6.762;2022-08-19T02:19:02;101046.53;;;19.34;75.39
9009;BME280;62813;51.424;6.762;2022-08-19T02:21:29;101039.72;;;19.32;75.49
9009;BME280;62813;51.424;6.762;2022-08-19T02:23:57;101045.94;;;19.31;75.67
9009;BME280;62813;51.424;6.762;2022-08-19T02:26:24;101047.00;;;19.28;75.60
9009;BME280;62813;51.424;6.762;2022-08-19T02:28:53;101049.09;;;19.23;75.99
9009;BME280;62813;51.424;6.762;2022-08-19T02:31:22;101046.59;;;19.22;75.98
9009;BME280;62813;51.424;6.762;2022-08-19T02:33:51;101055.13;;;19.25;76.16
9009;BME280;62813;51.424;6.762;2022-08-19T02:36:22;101067.31;;;19.26;75.70
9009;BME280;62813;51.424;6.762;2022-08-19T02:38:50;101062.06;;;19.26;75.90
9009;BME280;62813;51.424;6.762;2022-08-19T02:41:24;101058.19;;;19.19;75.80
9009;BME280;62813;51.424;6.762;2022-08-19T02:43:53;101054.09;;;19.15;76.17
9009;BME280;62813;51.424;6.762;2022-08-19T02:46:41;101053.78;;;19.07;76.82
9009;BME280;62813;51.424;6.762;2022-08-19T02:49:08;101056.31;;;19.08;77.06
9009;BME280;62813;51.424;6.762;2022-08-19T02:51:38;101061.03;;;19.16;77.00
9009;BME280;62813;51.424;6.762;2022-08-19T02:54:06;101067.44;;;19.25;76.27
9009;BME280;62813;51.424;6.762;2022-08-19T02:56:37;101059.00;;;19.32;75.94
9009;BME280;62813;51.424;6.762;2022-08-19T02:59:05;101069.41;;;19.34;75.73
9009;BME280;62813;51.424;6.762;2022-08-19T03:01:37;101070.78;;;19.40;75.93
9009;BME280;62813;51.424;6.762;2022-08-19T03:04:06;101064.31;;;19.44;75.29
9009;BME280;62813;51.424;6.762;2022-08-19T03:06:39;101062.66;;;19.43;75.52
9009;BME280;62813;51.424;6.762;2022-08-19T03:09:06;101067.72;;;19.46;75.35
9009;BME280;62813;51.424;6.762;2022-08-19T03:11:33;101060.28;;;19.51;74.82
9009;BME280;62813;51.424;6.762;2022-08-19T03:14:01;101057.78;;;19.49;74.62
9009;BME280;62813;51.424;6.762;2022-08-19T03:16:31;101063.16;;;19.48;74.85
9009;BME280;62813;51.424;6.762;2022-08-19T03:18:58;101063.41;;;19.45;75.00
9009;BME280;62813;51.424;6.762;2022-08-19T03:21:30;101056.66;;;19.41;75.00
9009;BME280;62813;51.424;6.762;2022-08-19T03:24:00;101052.34;;;19.40;74.85
9009;BME280;62813;51.424;6.762;2022-08-19T03:26:27;101053.31;;;19.39;74.86
9009;BME280;62813;51.424;6.762;2022-08-19T03:28:54;101048.75;;;19.41;75.04
9009;BME280;62813;51.424;6.762;2022-08-19T03:31:25;101046.84;;;19.43;74.65
9009;BME280;62813;51.424;6.762;2022-08-19T03:34:17;101056.94;;;19.49;74.58
9009;BME280;62813;51.424;6.762;2022-08-19T03:36:45;101052.63;;;19.48;74.48
9009;BME280;62813;51.424;6.762;2022-08-19T03:39:13;101058.84;;;19.47;75.04
9009;BME280;62813;51.424;6.762;2022-08-19T03:41:42;101055.25;;;19.48;75.16
9009;BME280;62813;51.424;6.762;2022-08-19T03:44:18;101061.50;;;19.47;74.81
9009;BME280;62813;51.424;6.762;2022-08-19T03:46:55;101066.75;;;19.47;74.88
9009;BME280;62813;51.424;6.762;2022-08-19T03:49:25;101068.44;;;19.48;74.80
9009;BME280;62813;51.424;6.762;2022-08-19T03:51:56;101067.59;;;19.47;74.92
9009;BME280;62813;51.424;6.762;2022-08-19T03:54:24;101066.97;;;19.44;74.99
9009;BME280;62813;51.424;6.762;2022-08-19T03:56:53;101063.50;;;19.43;75.22
9009;BME280;62813;51.424;6.762;2022-08-19T03:59:24;101059.81;;;19.46;75.27
9009;BME280;62813;51.424;6.762;2022-08-19T04:01:54;101049.88;;;19.49;75.10
9009;BME280;62813;51.424;6.762;2022-08-19T04:04:21;101058.84;;;19.47;75.07
9009;BME280;62813;51.424;6.762;2022-08-19T04:06:49;101053.31;;;19.39;75.29
9009;BME280;62813;51.424;6.762;2022-08-19T04:09:17;101060.53;;;19.35;75.94
9009;BME280;62813;51.424;6.762;2022-08-19T04:11:47;101067.41;;;19.38;75.86
9009;BME280;62813;51.424;6.762;2022-08-19T04:14:18;101072.56;;;19.39;75.79
9009;BME280;62813;51.424;6.762;2022-08-19T04:16:47;101071.00;;;19.36;75.47
9009;BME280;62813;51.424;6.762;2022-08-19T04:19:16;101059.19;;;19.29;75.68
9009;BME280;62813;51.424;6.762;2022-08-19T04:21:45;101062.25;;;19.23;75.64
9009;BME280;62813;51.424;6.762;2022-08-19T04:24:12;101068.91;;;19.16;75.79
9009;BME280;62813;51.424;6.762;2022-08-19T04:26:40;101065.69;;;19.13;76.34
9009;BME280;62813;51.424;6.762;2022-08-19T04:29:10;101064.59;;;19.15;76.45
9009;BME280;62813;51.424;6.762;2022-08-19T04:31:39;101059.25;;;19.17;76.13
9009;BME280;62813;51.424;6.762;2022-08-19T04:34:09;101056.41;;;19.20;75.89
9009;BME280;62813;51.424;6.762;2022-08-19T04:36:39;101055.69;;;19.18;75.70
9009;BME280;62813;51.424;6.762;2022-08-19T04:39:17;101058.38;;;19.16;76.05
9009;BME280;62813;51.424;6.762;2022-08-19T04:41:44;101065.84;;;19.22;76.04
9009;BME280;62813;51.424;6.762;2022-08-19T04:44:31;101070.38;;;19.20;75.53
9009;BME280;62813;51.424;6.762;2022-08-19T04:47:01;101069.88;;;19.15;75.79
9009;BME280;62813;51.424;6.762;2022-08-19T04:49:36;101074.09;;;19.18;75.81
9009;BME280;62813;51.424;6.762;2022-08-19T04:52:03;101073.47;;;19.14;75.83
9009;BME280;62813;51.424;6.762;2022-08-19T04:54:30;101084.22;;;19.11;75.99
9009;BME280;62813;51.424;6.762;2022-08-19T04:57:08;101083.47;;;19.09;76.43
9009;BME280;62813;51.424;6.762;2022-08-19T04:59:37;101088.44;;;19.01;76.26
9009;BME280;62813;51.424;6.762;2022-08-19T05:02:07;101093.38;;;19.05;76.97
9009;BME280;62813;51.424;6.762;2022-08-19T05:04:34;101095.47;;;19.13;76.53
9009;BME280;62813;51.424;6.762;2022-08-19T05:07:06;101101.69;;;19.12;76.18
9009;BME280;62813;51.424;6.762;2022-08-19T05:09:33;101108.38;;;19.16;76.15
9009;BME280;62813;51.424;6.762;2022-08-19T05:12:20;101109.03;;;19.20;75.45
9009;BME280;62813;51.424;6.762;2022-08-19T05:14:51;101117.53;;;19.23;75.38
9009;BME280;62813;51.424;6.762;2022-08-19T05:17:18;101118.28;;;19.25;75.77
9009;BME280;62813;51.424;6.762;2022-08-19T05:19:55;101118.56;;;19.33;75.13
9009;BME280;62813;51.424;6.762;2022-08-19T05:22:42;101123.94;;;19.45;74.73
9009;BME280;62813;51.424;6.762;2022-08-19T05:25:12;101128.41;;;19.55;74.06
9009;BME280;62813;51.424;6.762;2022-08-19T05:27:42;101130.50;;;19.63;73.62
9009;BME280;62813;51.424;6.762;2022-08-19T05:30:10;101128.56;;;19.65;74.15
9009;BME280;62813;51.424;6.762;2022-08-19T05:32:39;101129.22;;;19.69;73.95
9009;BME280;62813;51.424;6.762;2022-08-19T05:35:06;101131.53;;;19.73;73.86
9009;BME280;62813;51.424;6.762;2022-08-19T05:37:33;101123.13;;;19.79;73.49
9009;BME280;62813;51.424;6.762;2022-08-19T05:40:00;101123.66;;;19.84;73.41
9009;BME280;62813;51.424;6.762;2022-08-19T05:42:27;101116.75;;;19.95;73.49
9009;BME280;62813;51.424;6.762;2022-08-19T05:44:54;101122.06;;;20.06;73.53
9009;BME280;62813;51.424;6.762;2022-08-19T05:47:22;101114.31;;;20.15;73.06
9009;BME280;62813;51.424;6.762;2022-08-19T05:49:49;101122.38;;;20.25;73.34
9009;BME280;62813;51.424;6.762;2022-08-19T05:52:18;101126.50;;;20.40;72.67
9009;BME280;62813;51.424;6.762;2022-08-19T05:54:52;101128.34;;;20.51;72.62
9009;BME280;62813;51.424;6.762;2022-08-19T05:57:22;101131.59;;;20.66;71.80
9009;BME280;62813;51.424;6.762;2022-08-19T05:59:49;101133.75;;;20.72;71.54
9009;BME280;62813;51.424;6.762;2022-08-19T06:02:24;101133.53;;;20.86;71.05
9009;BME280;62813;51.424;6.762;2022-08-19T06:04:51;101133.38;;;20.99;70.31
9009;BME280;62813;51.424;6.762;2022-08-19T06:07:18;101123.91;;;20.96;70.44
9009;BME280;62813;51.424;6.762;2022-08-19T06:09:45;101123.31;;;21.04;70.26
9009;BME280;62813;51.424;6.762;2022-08-19T06:12:25;101134.69;;;21.05;69.99
9009;BME280;62813;51.424;6.762;2022-08-19T06:15:08;101127.50;;;21.07;70.31
9009;BME280;62813;51.424;6.762;2022-08-19T06:17:35;101128.22;;;21.09;70.44
9009;BME280;62813;51.424;6.762;2022-08-19T06:20:08;101119.25;;;21.22;70.09
9009;BME280;62813;51.424;6.762;2022-08-19T06:22:47;101120.88;;;21.35;69.40
9009;BME280;62813;51.424;6.762;2022-08-19T06:25:16;101115.59;;;21.46;69.36
9009;BME280;62813;51.424;6.762;2022-08-19T06:27:44;101121.19;;;21.64;68.73
9009;BME280;62813;51.424;6.762;2022-08-19T06:30:31;101122.09;;;21.74;68.23
9009;BME280;62813;51.424;6.762;2022-08-19T06:32:58;101120.16;;;21.76;67.74
9009;BME280;62813;51.424;6.762;2022-08-19T06:35:25;101124.25;;;21.80;67.96
9009;BME280;62813;51.424;6.762;2022-08-19T06:37:51;101126.53;;;21.85;67.66
9009;BME280;62813;51.424;6.762;2022-08-19T06:40:19;101123.34;;;21.91;67.39
9009;BME280;62813;51.424;6.762;2022-08-19T06:42:45;101113.25;;;21.96;67.27
9009;BME280;62813;51.424;6.762;2022-08-19T06:45:20;101116.16;;;21.93;67.21
9009;BME280;62813;51.424;6.762;2022-08-19T06:47:50;101127.94;;;21.89;67.40
9009;BME280;62813;51.424;6.762;2022-08-19T06:50:18;101125.22;;;21.79;67.93
9009;BME280;62813;51.424;6.762;2022-08-19T06:52:45;101125.25;;;21.68;68.15
9009;BME280;62813;51.424;6.762;2022-08-19T06:55:17;101135.94;;;21.66;68.47
9009;BME280;62813;51.424;6.762;2022-08-19T06:57:44;101124.41;;;21.67;68.50
9009;BME280;62813;51.424;6.762;2022-08-19T07:00:12;101135.72;;;21.58;68.28
9009;BME280;62813;51.424;6.762;2022-08-19T07:02:43;101132.94;;;21.71;68.40
9009;BME280;62813;51.424;6.762;2022-08-19T07:05:21;101136.69;;;21.89;67.91
9009;BME280;62813;51.424;6.762;2022-08-19T07:07:47;101133.91;;;22.02;67.44
9009;BME280;62813;51.424;6.762;2022-08-19T07:10:16;101141.22;;;22.09;66.97
9009;BME280;62813;51.424;6.762;2022-08-19T07:12:43;101133.66;;;22.26;66.83
9009;BME280;62813;51.424;6.762;2022-08-19T07:15:11;101130.50;;;22.32;66.86
9009;BME280;62813;51.424;6.762;2022-08-19T07:17:38;101137.69;;;22.41;66.47
9009;BME280;62813;51.424;6.762;2022-08-19T07:20:08;101131.47;;;22.52;66.08
9009;BME280;62813;51.424;6.762;2022-08-19T07:22:39;101142.09;;;22.61;65.69
9009;BME280;62813;51.424;6.762;2022-08-19T07:25:09;101131.31;;;22.74;64.78
9009;BME280;62813;51.424;6.762;2022-08-19T07:27:36;101150.34;;;22.89;64.67
9009;BME280;62813;51.424;6.762;2022-08-19T07:30:06;101151.50;;;22.96;64.61
9009;BME280;62813;51.424;6.762;2022-08-19T07:32:37;101145.25;;;22.97;64.63
9009;BME280;62813;51.424;6.762;2022-08-19T07:35:04;101150.97;;;23.02;63.55
9009;BME280;62813;51.424;6.762;2022-08-19T07:37:32;101150.19;;;23.11;63.06
9009;BME280;62813;51.424;6.762;2022-08-19T07:40:01;101155.19;;;23.14;62.86
9009;BME280;62813;51.424;6.762;2022-08-19T07:42:28;101151.72;;;23.24;62.72
9009;BME280;62813;51.424;6.762;2022-08-19T07:44:57;101161.47;;;23.13;62.45
9009;BME280;62813;51.424;6.762;2022-08-19T07:47:25;101156.19;;;23.13;62.61
9009;BME280;62813;51.424;6.762;2022-08-19T07:50:12;101159.28;;;23.28;62.96
9009;BME280;62813;51.424;6.762;2022-08-19T07:52:39;101166.94;;;23.31;62.46
9009;BME280;62813;51.424;6.762;2022-08-19T07:55:08;101170.47;;;23.41;62.51
9009;BME280;62813;51.424;6.762;2022-08-19T07:57:56;101172.63;;;23.57;61.88
9009;BME280;62813;51.424;6.762;2022-08-19T08:00:23;101172.63;;;23.57;62.32
9009;BME280;62813;51.424;6.762;2022-08-19T08:02:52;101174.59;;;23.65;62.01
9009;BME280;62813;51.424;6.762;2022-08-19T08:05:22;101181.22;;;23.50;62.27
9009;BME280;62813;51.424;6.762;2022-08-19T08:08:10;101185.00;;;23.47;62.05
9009;BME280;62813;51.424;6.762;2022-08-19T08:10:57;101187.84;;;23.65;61.75
9009;BME280;62813;51.424;6.762;2022-08-19T08:13:24;101190.78;;;23.81;61.43
9009;BME280;62813;51.424;6.762;2022-08-19T08:15:52;101184.81;;;23.89;61.26
9009;BME280;62813;51.424;6.762;2022-08-19T08:18:21;101184.97;;;24.07;60.44
9009;BME280;62813;51.424;6.762;2022-08-19T08:20:54;101180.78;;;24.04;60.19
9009;BME280;62813;51.424;6.762;2022-08-19T08:23:21;101181.91;;;24.11;60.01
9009;BME280;62813;51.424;6.762;2022-08-19T08:25:55;101186.09;;;24.04;59.87
9009;BME280;62813;51.424;6.762;2022-08-19T08:28:24;101196.13;;;23.91;59.08
9009;BME280;62813;51.424;6.762;2022-08-19T08:30:51;101196.81;;;23.83;58.28
9009;BME280;62813;51.424;6.762;2022-08-19T08:33:21;101199.44;;;23.73;59.14
9009;BME280;62813;51.424;6.762;2022-08-19T08:36:10;101205.97;;;23.60;59.21
9009;BME280;62813;51.424;6.762;2022-08-19T08:38:38;101213.16;;;23.48;59.26
9009;BME280;62813;51.424;6.762;2022-08-19T08:43:55;101206.84;;;23.70;59.20
9009;BME280;62813;51.424;6.762;2022-08-19T08:46:47;101207.38;;;23.73;59.20
9009;BME280;62813;51.424;6.762;2022-08-19T08:49:33;101193.59;;;23.70;58.77
9009;BME280;62813;51.424;6.762;2022-08-19T08:52:18;101195.69;;;23.86;58.28
9009;BME280;62813;51.424;6.762;2022-08-19T08:54:48;101196.13;;;23.91;57.38
9009;BME280;62813;51.424;6.762;2022-08-19T08:57:27;101195.25;;;23.81;57.07
9009;BME280;62813;51.424;6.762;2022-08-19T09:00:08;101195.97;;;23.83;57.47
9009;BME280;62813;51.424;6.762;2022-08-19T09:02:42;101201.72;;;23.97;57.42
9009;BME280;62813;51.424;6.762;2022-08-19T09:05:10;101197.66;;;24.13;57.05
9009;BME280;62813;51.424;6.762;2022-08-19T09:08:07;101197.69;;;24.03;57.45
9009;BME280;62813;51.424;6.762;2022-08-19T09:10:49;101196.41;;;24.26;57.25
9009;BME280;62813;51.424;6.762;2022-08-19T09:16:15;101188.97;;;24.59;56.08
9009;BME280;62813;51.424;6.762;2022-08-19T09:21:11;101191.06;;;24.65;55.92
9009;BME280;62813;51.424;6.762;2022-08-19T09:23:37;101190.38;;;24.63;55.86
9009;BME280;62813;51.424;6.762;2022-08-19T09:26:13;101194.28;;;24.69;55.85
9009;BME280;62813;51.424;6.762;2022-08-19T09:28:43;101193.00;;;24.83;55.53
9009;BME280;62813;51.424;6.762;2022-08-19T09:31:16;101191.84;;;24.95;54.59
9009;BME280;62813;51.424;6.762;2022-08-19T09:33:44;101188.34;;;25.04;54.36
9009;BME280;62813;51.424;6.762;2022-08-19T09:36:13;101186.56;;;25.22;53.84
9009;BME280;62813;51.424;6.762;2022-08-19T09:38:56;101188.44;;;25.40;52.96
9009;BME280;62813;51.424;6.762;2022-08-19T09:41:24;101189.28;;;25.40;52.92
9009;BME280;62813;51.424;6.762;2022-08-19T09:43:55;101192.38;;;25.35;52.98
9009;BME280;62813;51.424;6.762;2022-08-19T09:46:24;101185.88;;;25.20;53.67
9009;BME280;62813;51.424;6.762;2022-08-19T09:48:52;101187.84;;;25.18;53.77
9009;BME280;62813;51.424;6.762;2022-08-19T09:51:24;101177.28;;;24.99;53.68
9009;BME280;62813;51.424;6.762;2022-08-19T09:53:53;101180.22;;;24.96;53.63
9009;BME280;62813;51.424;6.762;2022-08-19T09:56:24;101183.47;;;24.80;54.31
9009;BME280;62813;51.424;6.762;2022-08-19T09:58:51;101188.97;;;24.69;54.67
9009;BME280;62813;51.424;6.762;2022-08-19T10:01:21;101188.56;;;24.73;54.75
9009;BME280;62813;51.424;6.762;2022-08-19T10:03:51;101189.91;;;24.77;54.63
9009;BME280;62813;51.424;6.762;2022-08-19T10:06:22;101188.94;;;24.88;54.17
9009;BME280;62813;51.424;6.762;2022-08-19T10:09:10;101186.53;;;24.85;54.01
9009;BME280;62813;51.424;6.762;2022-08-19T10:11:40;101182.19;;;24.94;54.10
9009;BME280;62813;51.424;6.762;2022-08-19T10:14:19;101180.28;;;24.76;54.17
9009;BME280;62813;51.424;6.762;2022-08-19T10:16:49;101180.56;;;24.83;53.93
9009;BME280;62813;51.424;6.762;2022-08-19T10:19:18;101182.63;;;24.79;53.95
9009;BME280;62813;51.424;6.762;2022-08-19T10:21:52;101181.28;;;24.75;53.92
9009;BME280;62813;51.424;6.762;2022-08-19T10:24:25;101171.59;;;24.84;53.76
9009;BME280;62813;51.424;6.762;2022-08-19T10:26:55;101162.47;;;24.96;53.29
9009;BME280;62813;51.424;6.762;2022-08-19T10:29:26;101165.78;;;25.08;53.22
9009;BME280;62813;51.424;6.762;2022-08-19T10:32:03;101167.97;;;25.22;53.09
9009;BME280;62813;51.424;6.762;2022-08-19T10:34:38;101168.53;;;25.26;52.76
9009;BME280;62813;51.424;6.762;2022-08-19T10:37:15;101171.09;;;25.08;52.07
9009;BME280;62813;51.424;6.762;2022-08-19T10:39:54;101155.47;;;25.05;51.97
9009;BME280;62813;51.424;6.762;2022-08-19T10:42:21;101157.44;;;25.03;51.84
9009;BME280;62813;51.424;6.762;2022-08-19T10:44:51;101155.88;;;25.00;52.32
9009;BME280;62813;51.424;6.762;2022-08-19T10:47:18;101159.38;;;25.01;52.04
9009;BME280;62813;51.424;6.762;2022-08-19T10:49:54;101161.63;;;24.96;52.35
9009;BME280;62813;51.424;6.762;2022-08-19T10:52:45;101162.00;;;25.01;52.11
9009;BME280;62813;51.424;6.762;2022-08-19T10:55:18;101165.41;;;25.03;52.00
9009;BME280;62813;51.424;6.762;2022-08-19T10:58:04;101156.25;;;25.15;50.99
9009;BME280;62813;51.424;6.762;2022-08-19T11:00:36;101156.03;;;25.08;51.71
9009;BME280;62813;51.424;6.762;2022-08-19T11:03:03;101163.50;;;25.23;51.86
9009;BME280;62813;51.424;6.762;2022-08-19T11:05:30;101153.22;;;25.38;51.47
9009;BME280;62813;51.424;6.762;2022-08-19T11:08:05;101151.41;;;25.56;50.65
9009;BME280;62813;51.424;6.762;2022-08-19T11:10:53;101148.66;;;25.75;50.35
9009;BME280;62813;51.424;6.762;2022-08-19T11:13:28;101147.13;;;25.90;49.49
9009;BME280;62813;51.424;6.762;2022-08-19T11:16:04;101157.78;;;26.08;48.59
9009;BME280;62813;51.424;6.762;2022-08-19T11:18:38;101155.34;;;26.15;48.45
9009;BME280;62813;51.424;6.762;2022-08-19T11:21:07;101162.22;;;26.26;48.21
9009;BME280;62813;51.424;6.762;2022-08-19T11:23:34;101152.94;;;26.30;48.08
9009;BME280;62813;51.424;6.762;2022-08-19T11:26:01;101157.13;;;26.32;48.22
9009;BME280;62813;51.424;6.762;2022-08-19T11:28:28;101147.31;;;26.33;47.53
9009;BME280;62813;51.424;6.762;2022-08-19T11:30:54;101145.19;;;26.36;46.51
9009;BME280;62813;51.424;6.762;2022-08-19T11:33:21;101144.69;;;26.41;47.04
9009;BME280;62813;51.424;6.762;2022-08-19T11:35:48;101141.59;;;26.46;46.87
9009;BME280;62813;51.424;6.762;2022-08-19T11:38:15;101136.94;;;26.48;46.73
9009;BME280;62813;51.424;6.762;2022-08-19T11:40:42;101140.50;;;26.56;46.55
9009;BME280;62813;51.424;6.762;2022-08-19T11:43:08;101145.97;;;26.55;47.18
9009;BME280;62813;51.424;6.762;2022-08-19T11:45:35;101141.50;;;26.55;45.91
9009;BME280;62813;51.424;6.762;2022-08-19T11:48:02;101121.34;;;26.53;46.18
9009;BME280;62813;51.424;6.762;2022-08-19T11:50:29;101138.47;;;26.50;46.75
9009;BME280;62813;51.424;6.762;2022-08-19T11:52:56;101135.31;;;26.29;45.78
9009;BME280;62813;51.424;6.762;2022-08-19T11:55:23;101138.59;;;26.05;45.87
9009;BME280;62813;51.424;6.762;2022-08-19T11:57:50;101133.66;;;25.92;47.08
9009;BME280;62813;51.424;6.762;2022-08-19T12:00:17;101133.53;;;25.94;46.83
9009;BME280;62813;51.424;6.762;2022-08-19T12:02:43;101140.22;;;25.98;46.75
9009;BME280;62813;51.424;6.762;2022-08-19T12:05:10;101139.81;;;26.10;46.21
9009;BME280;62813;51.424;6.762;2022-08-19T12:07:39;101137.75;;;26.22;45.22
9009;BME280;62813;51.424;6.762;2022-08-19T12:10:06;101130.50;;;26.32;44.88
9009;BME280;62813;51.424;6.762;2022-08-19T12:12:33;101122.44;;;26.42;44.94
9009;BME280;62813;51.424;6.762;2022-08-19T12:15:00;101126.50;;;26.54;44.51
9009;BME280;62813;51.424;6.762;2022-08-19T12:17:27;101122.81;;;26.47;44.96
9009;BME280;62813;51.424;6.762;2022-08-19T12:19:54;101118.34;;;26.56;44.79
9009;BME280;62813;51.424;6.762;2022-08-19T12:22:21;101118.72;;;26.61;44.79
9009;BME280;62813;51.424;6.762;2022-08-19T12:24:48;101114.78;;;26.65;44.26
9009;BME280;62813;51.424;6.762;2022-08-19T12:27:17;101111.31;;;26.73;44.48
9009;BME280;62813;51.424;6.762;2022-08-19T12:29:57;101111.16;;;26.74;43.59
9009;BME280;62813;51.424;6.762;2022-08-19T12:32:24;101107.19;;;26.78;44.34
9009;BME280;62813;51.424;6.762;2022-08-19T12:34:52;101107.53;;;26.83;44.31
9009;BME280;62813;51.424;6.762;2022-08-19T12:37:19;101114.22;;;26.87;44.53
9009;BME280;62813;51.424;6.762;2022-08-19T12:39:45;101113.56;;;26.93;43.92
9009;BME280;62813;51.424;6.762;2022-08-19T12:42:14;101100.09;;;26.95;44.21
9009;BME280;62813;51.424;6.762;2022-08-19T12:44:42;101103.19;;;26.82;44.24
9009;BME280;62813;51.424;6.762;2022-08-19T12:47:11;101103.84;;;26.84;43.89
9009;BME280;62813;51.424;6.762;2022-08-19T12:49:41;101105.84;;;26.82;43.47
9009;BME280;62813;51.424;6.762;2022-08-19T12:52:18;101104.78;;;26.67;44.14
9009;BME280;62813;51.424;6.762;2022-08-19T12:54:49;101098.06;;;26.55;44.05
9009;BME280;62813;51.424;6.762;2022-08-19T12:57:21;101102.34;;;26.48;44.55
9009;BME280;62813;51.424;6.762;2022-08-19T12:59:53;101106.09;;;26.63;43.10
9009;BME280;62813;51.424;6.762;2022-08-19T13:02:20;101094.13;;;26.67;41.95
9009;BME280;62813;51.424;6.762;2022-08-19T13:04:47;101092.63;;;26.64;40.41
9009;BME280;62813;51.424;6.762;2022-08-19T13:07:14;101094.00;;;26.77;41.73
9009;BME280;62813;51.424;6.762;2022-08-19T13:09:41;101090.25;;;26.95;42.13
9009;BME280;62813;51.424;6.762;2022-08-19T13:12:09;101093.72;;;27.22;41.69
9009;BME280;62813;51.424;6.762;2022-08-19T13:14:39;101095.09;;;27.34;41.19
9009;BME280;62813;51.424;6.762;2022-08-19T13:17:07;101092.78;;;27.56;41.19
9009;BME280;62813;51.424;6.762;2022-08-19T13:19:36;101098.81;;;27.82;41.25
9009;BME280;62813;51.424;6.762;2022-08-19T13:22:03;101082.50;;;27.93;40.45
9009;BME280;62813;51.424;6.762;2022-08-19T13:24:38;101086.81;;;27.78;40.42
9009;BME280;62813;51.424;6.762;2022-08-19T13:27:12;101092.63;;;27.90;39.84
9009;BME280;62813;51.424;6.762;2022-08-19T13:29:42;101080.66;;;27.77;39.10